Time;durP1;ratioP1;P1;durP2;ratioP2;P2;SDS_P1;SDS_P2;PMS_P1;PMS_P2;Temp;Humidity;BMP_temperature;BMP_pressure;BME280_temperature;BME280_humidity;BME280_pressure;Samples;Min_cycle;Max_cycle;Signal;HPM_P1;HPM_P2
2023/06/22 00:02:20;;;;;;;9.82;8.10;;;18.40;99.90;;;;;;5055340;28;20205;-80
2023/06/22 00:04:46;;;;;;;11.88;7.65;;;18.60;99.90;;;;;;5057484;28;20199;-81
2023/06/22 00:07:13;;;;;;;11.32;6.35;;;18.30;99.90;;;;;;5057145;28;21829;-80
2023/06/22 00:09:40;;;;;;;10.05;7.70;;;17.80;99.90;;;;;;5037385;28;20206;-80
2023/06/22 00:12:08;;;;;;;11.20;7.50;;;18.00;99.90;;;;;;5047344;28;20203;-81
2023/06/22 00:14:34;;;;;;;10.38;7.93;;;18.20;99.90;;;;;;5058115;28;20210;-80
2023/06/22 00:17:01;;;;;;;10.63;8.65;;;18.30;99.90;;;;;;5058150;28;20254;-81
2023/06/22 00:19:29;;;;;;;11.20;8.80;;;18.30;99.90;;;;;;5038037;28;20210;-80
2023/06/22 00:22:00;;;;;;;11.57;8.30;;;18.30;99.90;;;;;;5039463;28;20215;-81
2023/06/22 00:24:27;;;;;;;12.63;8.55;;;18.20;99.90;;;;;;5057685;28;20206;-79
2023/06/22 00:26:53;;;;;;;10.93;7.95;;;18.20;99.90;;;;;;5057285;28;20663;-80
2023/06/22 00:29:20;;;;;;;11.07;8.18;;;18.30;99.90;;;;;;5044842;28;20203;-81
2023/06/22 00:31:47;;;;;;;11.38;8.32;;;18.40;99.90;;;;;;5054554;28;20215;-80
2023/06/22 00:34:14;;;;;;;13.57;9.60;;;18.40;99.90;;;;;;5037663;28;20213;-81
2023/06/22 00:36:42;;;;;;;15.73;9.57;;;18.40;99.90;;;;;;5048740;28;20195;-81
2023/06/22 00:39:09;;;;;;;17.60;9.07;;;18.10;99.90;;;;;;5047076;28;20226;-81
2023/06/22 00:41:36;;;;;;;15.05;8.90;;;17.70;99.90;;;;;;5048201;28;20249;-80
2023/06/22 00:44:03;;;;;;;13.30;9.73;;;17.80;99.90;;;;;;5057478;28;20561;-81
2023/06/22 00:46:30;;;;;;;14.65;9.95;;;17.60;99.90;;;;;;5057640;28;20202;-81
2023/06/22 00:48:57;;;;;;;14.85;9.50;;;17.80;99.90;;;;;;5039586;28;20188;-81
2023/06/22 00:51:24;;;;;;;12.75;9.18;;;17.80;99.90;;;;;;5063992;28;20276;-81
2023/06/22 00:53:53;;;;;;;16.08;10.55;;;18.00;99.90;;;;;;5057029;28;20217;-78
2023/06/22 00:56:24;;;;;;;12.77;9.38;;;18.10;99.90;;;;;;5038981;28;20231;-81
2023/06/22 00:58:52;;;;;;;14.43;9.75;;;18.10;99.90;;;;;;5077065;28;20305;-81
2023/06/22 01:01:23;;;;;;;19.25;9.82;;;18.00;99.90;;;;;;5068769;28;20223;-80
2023/06/22 01:03:50;;;;;;;13.18;10.10;;;18.00;99.90;;;;;;5071968;28;20210;-81
2023/06/22 01:06:27;;;;;;;13.38;9.55;;;18.00;99.90;;;;;;5056994;28;20205;-79
2023/06/22 01:09:06;;;;;;;13.13;10.13;;;18.00;99.90;;;;;;5057081;28;20187;-81
2023/06/22 01:11:39;;;;;;;13.63;10.13;;;18.00;99.90;;;;;;5056582;28;20797;-79
2023/06/22 01:14:11;;;;;;;15.50;10.15;;;18.00;99.90;;;;;;5057032;28;20198;-81
2023/06/22 01:16:42;;;;;;;13.52;8.75;;;18.00;99.90;;;;;;5040411;28;20219;-82
2023/06/22 01:19:26;;;;;;;14.80;8.80;;;18.00;99.90;;;;;;5037299;28;20223;-81
2023/06/22 01:21:56;;;;;;;17.60;9.40;;;17.50;99.90;;;;;;5039048;28;20242;-78
2023/06/22 01:24:31;;;;;;;18.63;9.27;;;17.10;99.90;;;;;;5056994;28;20203;-81
2023/06/22 01:27:10;;;;;;;15.90;9.82;;;16.80;99.90;;;;;;5057739;28;20254;-80
2023/06/22 01:29:40;;;;;;;19.40;9.55;;;16.30;99.90;;;;;;5056977;28;20266;-81
2023/06/22 01:32:07;;;;;;;19.35;10.07;;;16.40;99.90;;;;;;5056036;28;20199;-80
2023/06/22 01:34:35;;;;;;;16.08;10.70;;;16.70;99.90;;;;;;5056361;28;20575;-80
2023/06/22 01:37:04;;;;;;;17.20;9.95;;;17.10;99.90;;;;;;5045405;28;20199;-79
2023/06/22 01:39:31;;;;;;;19.13;10.52;;;17.20;99.90;;;;;;5036286;28;20223;-80
2023/06/22 01:41:58;;;;;;;19.92;10.82;;;17.20;99.90;;;;;;5039226;28;20236;-82
2023/06/22 01:44:27;;;;;;;19.35;10.93;;;17.20;99.90;;;;;;5055209;28;20203;-82
2023/06/22 01:46:56;;;;;;;18.02;11.60;;;17.60;99.90;;;;;;5056167;28;20902;-83
2023/06/22 01:49:23;;;;;;;15.93;11.15;;;17.70;99.90;;;;;;5050890;28;20207;-80
2023/06/22 01:51:50;;;;;;;13.85;10.02;;;17.60;99.90;;;;;;5038452;28;20590;-80
2023/06/22 01:54:17;;;;;;;22.45;11.32;;;17.70;99.90;;;;;;5056014;28;20217;-80
2023/06/22 01:56:43;;;;;;;20.77;10.55;;;17.30;99.90;;;;;;5049169;28;20210;-80
2023/06/22 01:59:16;;;;;;;20.10;9.43;;;17.40;99.90;;;;;;5051720;28;20229;-80
2023/06/22 02:01:45;;;;;;;22.15;10.65;;;17.00;99.90;;;;;;5053313;28;20229;-78
2023/06/22 02:04:21;;;;;;;19.95;10.43;;;16.60;99.90;;;;;;5055929;28;20211;-82
2023/06/22 02:06:52;;;;;;;18.23;10.15;;;16.70;99.90;;;;;;5048217;28;20199;-81
2023/06/22 02:09:22;;;;;;;20.38;10.35;;;16.70;99.90;;;;;;5055351;28;20191;-81
2023/06/22 02:11:51;;;;;;;17.88;11.05;;;16.80;99.90;;;;;;5046722;28;20315;-81
2023/06/22 02:14:19;;;;;;;19.48;10.88;;;17.00;99.90;;;;;;5051967;28;20290;-79
2023/06/22 02:16:47;;;;;;;19.80;10.50;;;17.10;99.90;;;;;;5055307;28;20205;-81
2023/06/22 02:19:15;;;;;;;15.93;10.48;;;17.30;99.90;;;;;;5051671;28;20216;-79
2023/06/22 02:21:42;;;;;;;12.38;9.32;;;17.10;99.90;;;;;;5035670;28;20774;-80
2023/06/22 02:24:09;;;;;;;17.55;11.77;;;17.10;99.90;;;;;;5036587;28;20558;-83
2023/06/22 02:26:38;;;;;;;16.45;10.38;;;17.10;99.90;;;;;;5055815;28;20195;-82
2023/06/22 02:29:05;;;;;;;20.02;11.77;;;17.40;99.90;;;;;;5047924;28;20640;-81
2023/06/22 02:31:31;;;;;;;14.48;10.27;;;17.40;99.90;;;;;;5036639;28;20751;-80
2023/06/22 02:33:59;;;;;;;18.83;11.48;;;17.20;99.90;;;;;;5036740;28;20204;-79
2023/06/22 02:36:30;;;;;;;22.05;11.35;;;17.10;99.90;;;;;;5041889;28;20211;-81
2023/06/22 02:39:00;;;;;;;17.23;10.60;;;17.10;99.90;;;;;;5040027;28;20710;-80
2023/06/22 02:41:27;;;;;;;18.08;11.00;;;17.10;99.90;;;;;;5040646;28;20230;-80
2023/06/22 02:43:54;;;;;;;24.30;11.70;;;17.00;99.90;;;;;;5050331;28;20235;-81
2023/06/22 02:46:21;;;;;;;16.10;11.20;;;17.10;99.90;;;;;;5059682;28;20286;-80
2023/06/22 02:48:48;;;;;;;14.68;10.48;;;17.10;99.90;;;;;;5045107;28;20203;-81
2023/06/22 02:51:15;;;;;;;17.45;11.07;;;17.00;99.90;;;;;;5039295;28;20233;-79
2023/06/22 02:53:44;;;;;;;17.30;11.55;;;17.00;99.90;;;;;;5040842;28;20241;-80
2023/06/22 02:56:12;;;;;;;17.45;10.75;;;17.30;99.90;;;;;;5047237;28;20211;-78
2023/06/22 02:58:39;;;;;;;17.20;10.45;;;17.40;99.90;;;;;;5049369;28;20226;-80
2023/06/22 03:01:06;;;;;;;18.25;11.13;;;17.30;99.90;;;;;;5055223;28;20756;-80
2023/06/22 03:03:33;;;;;;;17.00;10.88;;;17.30;99.90;;;;;;5057293;28;20207;-81
2023/06/22 03:06:01;;;;;;;19.60;10.27;;;17.30;99.90;;;;;;5057348;28;20571;-81
2023/06/22 03:08:28;;;;;;;18.25;10.85;;;16.80;99.90;;;;;;5057286;28;20218;-80
2023/06/22 03:10:56;;;;;;;19.38;11.80;;;17.00;99.90;;;;;;5056560;28;20765;-81
2023/06/22 03:13:23;;;;;;;18.65;11.15;;;17.20;99.90;;;;;;5056391;28;20211;-81
2023/06/22 03:15:50;;;;;;;21.63;10.95;;;17.20;99.90;;;;;;5059080;28;20231;-81
2023/06/22 03:18:17;;;;;;;23.38;10.10;;;17.20;99.90;;;;;;5059739;28;20302;-80
2023/06/22 03:20:44;;;;;;;17.77;10.40;;;16.70;99.90;;;;;;5059330;28;20218;-79
2023/06/22 03:23:11;;;;;;;20.52;11.35;;;16.70;99.90;;;;;;5058616;28;20210;-81
2023/06/22 03:25:37;;;;;;;15.52;10.15;;;16.70;99.90;;;;;;5053950;28;20636;-80
2023/06/22 03:28:06;;;;;;;18.73;10.90;;;16.60;99.90;;;;;;5039320;28;20569;-78
2023/06/22 03:30:32;;;;;;;20.15;11.50;;;16.80;99.90;;;;;;5039162;28;20259;-80
2023/06/22 03:32:59;;;;;;;18.25;11.57;;;16.70;99.90;;;;;;5039309;28;20230;-81
2023/06/22 03:35:26;;;;;;;16.13;11.57;;;16.80;99.90;;;;;;5038695;28;20211;-81
2023/06/22 03:37:53;;;;;;;22.98;15.05;;;17.00;99.90;;;;;;5037908;28;20290;-81
2023/06/22 03:40:20;;;;;;;16.90;11.20;;;17.00;99.90;;;;;;5039886;28;20239;-81
2023/06/22 03:42:47;;;;;;;19.23;10.73;;;17.10;99.90;;;;;;5058965;28;20203;-80
2023/06/22 03:45:15;;;;;;;17.67;11.02;;;17.50;99.90;;;;;;5059386;28;20207;-82
2023/06/22 03:47:42;;;;;;;20.77;11.45;;;17.60;99.90;;;;;;5059601;28;20241;-80
2023/06/22 03:50:09;;;;;;;20.65;11.82;;;17.50;99.90;;;;;;5057235;28;20220;-80
2023/06/22 03:52:36;;;;;;;19.35;11.18;;;17.80;99.90;;;;;;5057665;28;20217;-81
2023/06/22 03:55:04;;;;;;;19.80;12.07;;;17.90;99.90;;;;;;5057683;28;20195;-79
2023/06/22 03:57:30;;;;;;;22.35;11.30;;;17.90;99.90;;;;;;5057790;28;20282;-81
2023/06/22 03:59:58;;;;;;;27.67;12.05;;;18.00;99.90;;;;;;5057793;28;20231;-81
2023/06/22 04:02:26;;;;;;;26.02;12.63;;;17.90;99.90;;;;;;5057785;28;20205;-81
2023/06/22 04:04:53;;;;;;;25.90;13.48;;;18.10;99.90;;;;;;5057710;28;20211;-82
2023/06/22 04:07:20;;;;;;;21.40;11.90;;;18.10;99.90;;;;;;5057707;28;20290;-82
2023/06/22 04:09:47;;;;;;;23.38;12.05;;;18.30;99.90;;;;;;5058091;28;20290;-81
2023/06/22 04:12:14;;;;;;;26.40;12.60;;;18.10;99.90;;;;;;5058915;28;20215;-82
2023/06/22 04:14:40;;;;;;;17.77;13.00;;;18.20;99.90;;;;;;5058554;28;20720;-82
2023/06/22 04:17:07;;;;;;;25.20;12.95;;;18.00;99.90;;;;;;5058683;28;20245;-81
2023/06/22 04:19:35;;;;;;;22.10;13.10;;;17.80;99.90;;;;;;5058551;28;20230;-81
2023/06/22 04:22:02;;;;;;;22.45;13.15;;;17.70;99.90;;;;;;5058661;28;20230;-79
2023/06/22 04:24:29;;;;;;;28.15;15.75;;;17.90;99.90;;;;;;5058484;28;20289;-81
2023/06/22 04:26:56;;;;;;;28.45;13.93;;;18.00;99.90;;;;;;5058092;28;20656;-81
2023/06/22 04:29:28;;;;;;;27.75;14.68;;;18.00;99.90;;;;;;5057757;28;20214;-81
2023/06/22 04:31:57;;;;;;;22.50;15.02;;;18.20;99.90;;;;;;5057117;28;20227;-80
2023/06/22 04:34:26;;;;;;;23.10;15.18;;;18.30;99.90;;;;;;5057363;28;20199;-82
2023/06/22 04:36:54;;;;;;;20.73;15.75;;;18.30;99.90;;;;;;5057260;28;20210;-81
2023/06/22 04:39:21;;;;;;;22.48;16.17;;;18.40;99.90;;;;;;5056974;28;20215;-82
2023/06/22 04:41:47;;;;;;;22.38;16.42;;;18.40;99.90;;;;;;5056835;28;20272;-81
2023/06/22 04:44:23;;;;;;;26.98;17.63;;;18.40;99.90;;;;;;5057524;28;20206;-82
2023/06/22 04:46:53;;;;;;;25.52;18.38;;;18.30;99.90;;;;;;5057808;28;20211;-81
2023/06/22 04:49:21;;;;;;;25.15;18.15;;;18.10;99.90;;;;;;5057204;28;20573;-81
2023/06/22 04:51:51;;;;;;;22.95;17.92;;;18.10;99.90;;;;;;5057662;28;20231;-81
2023/06/22 04:54:19;;;;;;;26.10;18.70;;;18.30;99.90;;;;;;5057854;28;20222;-80
2023/06/22 04:56:46;;;;;;;25.88;17.17;;;18.30;99.90;;;;;;5057445;28;20698;-81
2023/06/22 04:59:13;;;;;;;23.30;18.23;;;18.40;99.90;;;;;;5057784;28;20272;-82
2023/06/22 05:01:40;;;;;;;27.70;16.83;;;18.50;99.90;;;;;;5057508;28;20595;-80
2023/06/22 05:04:07;;;;;;;23.50;18.25;;;18.60;99.90;;;;;;5057093;28;20561;-82
2023/06/22 05:06:34;;;;;;;24.02;18.00;;;18.70;99.90;;;;;;5056758;28;20217;-82
2023/06/22 05:09:01;;;;;;;23.73;17.35;;;18.70;99.90;;;;;;5057021;28;20245;-80
2023/06/22 05:11:30;;;;;;;28.08;19.75;;;18.80;99.90;;;;;;5056792;28;20301;-81
2023/06/22 05:13:57;;;;;;;25.58;17.92;;;18.80;99.90;;;;;;5056679;28;20222;-81
2023/06/22 05:16:25;;;;;;;25.38;18.52;;;19.10;99.90;;;;;;5056692;28;20234;-82
2023/06/22 05:18:55;;;;;;;24.33;17.40;;;19.00;99.90;;;;;;5056974;28;20223;-81
2023/06/22 05:21:27;;;;;;;25.13;17.80;;;19.10;99.90;;;;;;5057655;28;20233;-82
2023/06/22 05:23:55;;;;;;;27.77;19.20;;;19.10;99.90;;;;;;5058436;28;20654;-81
2023/06/22 05:26:23;;;;;;;22.98;18.20;;;19.10;99.90;;;;;;5057821;28;20207;-82
2023/06/22 05:28:51;;;;;;;26.83;19.75;;;19.20;99.90;;;;;;5057744;28;20618;-81
2023/06/22 05:31:19;;;;;;;23.88;18.08;;;19.30;99.90;;;;;;5058066;28;20646;-82
2023/06/22 05:33:47;;;;;;;24.77;18.10;;;19.30;99.90;;;;;;5057620;28;20234;-83
2023/06/22 05:36:15;;;;;;;25.33;18.63;;;19.30;99.90;;;;;;5058276;28;20563;-82
2023/06/22 05:38:42;;;;;;;22.50;17.45;;;19.40;99.90;;;;;;5057790;28;20203;-81
2023/06/22 05:41:09;;;;;;;24.80;18.20;;;19.40;99.90;;;;;;5058611;28;20258;-83
2023/06/22 05:43:36;;;;;;;23.35;16.60;;;19.50;99.90;;;;;;5056619;28;20234;-81
2023/06/22 05:46:05;;;;;;;23.85;17.02;;;19.60;99.90;;;;;;5057182;28;20225;-83
2023/06/22 05:48:32;;;;;;;25.70;17.58;;;19.60;99.90;;;;;;5057159;28;20655;-83
2023/06/22 05:50:59;;;;;;;23.25;16.17;;;19.70;99.90;;;;;;5056660;28;20725;-83
2023/06/22 05:53:26;;;;;;;26.60;17.00;;;19.70;99.90;;;;;;5056419;28;20206;-81
2023/06/22 05:55:53;;;;;;;22.23;15.82;;;19.80;99.90;;;;;;5057689;28;20238;-82
2023/06/22 05:58:20;;;;;;;20.15;14.48;;;19.90;99.90;;;;;;5057510;28;20203;-83
2023/06/22 06:00:47;;;;;;;23.92;15.18;;;19.90;99.90;;;;;;5057373;28;20588;-81
2023/06/22 06:03:16;;;;;;;21.10;15.95;;;20.00;99.90;;;;;;5056025;28;20280;-82
2023/06/22 06:05:44;;;;;;;21.88;15.57;;;20.00;99.90;;;;;;5057240;28;20222;-81
2023/06/22 06:08:12;;;;;;;20.23;15.70;;;19.80;99.90;;;;;;5056666;28;20806;-80
2023/06/22 06:10:39;;;;;;;19.52;14.57;;;20.10;99.90;;;;;;5060067;28;20264;-83
2023/06/22 06:13:06;;;;;;;21.67;16.17;;;20.20;99.90;;;;;;5060402;28;20203;-82
2023/06/22 06:15:33;;;;;;;19.13;14.30;;;20.20;99.90;;;;;;5059453;28;20206;-83
2023/06/22 06:18:01;;;;;;;18.13;14.63;;;20.30;99.90;;;;;;5060174;28;20206;-81
2023/06/22 06:20:30;;;;;;;20.95;15.07;;;20.40;99.90;;;;;;5060018;28;20230;-83
2023/06/22 06:22:58;;;;;;;22.27;14.98;;;20.40;99.90;;;;;;5060619;28;20210;-82
2023/06/22 06:25:25;;;;;;;19.58;14.25;;;20.40;99.90;;;;;;5061009;28;20207;-80
2023/06/22 06:27:54;;;;;;;19.92;14.80;;;20.60;99.90;;;;;;5061348;28;20207;-81
2023/06/22 06:30:21;;;;;;;17.55;14.20;;;20.50;99.90;;;;;;5061231;28;20226;-82
2023/06/22 06:32:48;;;;;;;19.08;14.75;;;20.50;99.90;;;;;;5060667;28;20218;-79
2023/06/22 06:35:16;;;;;;;21.20;14.02;;;20.60;99.90;;;;;;5060889;28;20281;-82
2023/06/22 06:37:45;;;;;;;19.27;13.73;;;20.70;99.90;;;;;;5061954;28;20203;-82
2023/06/22 06:40:14;;;;;;;19.40;13.68;;;20.90;99.90;;;;;;5060718;28;20761;-81
2023/06/22 06:42:44;;;;;;;20.27;13.57;;;20.90;99.90;;;;;;5060358;28;20203;-80
2023/06/22 06:45:11;;;;;;;19.40;13.45;;;20.80;99.90;;;;;;5060796;28;20206;-83
2023/06/22 06:47:39;;;;;;;18.20;13.65;;;20.90;99.90;;;;;;5060884;28;20293;-81
2023/06/22 06:50:07;;;;;;;18.08;13.55;;;21.00;99.90;;;;;;5060695;28;20246;-82
2023/06/22 06:52:33;;;;;;;18.20;13.02;;;21.20;99.90;;;;;;5060230;28;20674;-83
2023/06/22 06:55:04;;;;;;;17.55;11.77;;;21.30;99.90;;;;;;5061554;28;20286;-82
2023/06/22 06:57:33;;;;;;;18.42;12.65;;;21.30;99.90;;;;;;5059718;28;20213;-81
2023/06/22 07:00:00;;;;;;;17.60;12.68;;;21.30;99.90;;;;;;5060236;28;20253;-82
2023/06/22 07:02:28;;;;;;;15.88;11.80;;;21.40;99.90;;;;;;5060005;28;20294;-81
2023/06/22 07:04:56;;;;;;;16.00;11.63;;;21.50;99.90;;;;;;5059238;28;20612;-82
2023/06/22 07:07:23;;;;;;;16.88;11.38;;;21.60;99.90;;;;;;5060155;28;20226;-82
2023/06/22 07:09:49;;;;;;;14.73;11.15;;;21.70;99.90;;;;;;5059732;28;20199;-82
2023/06/22 07:12:18;;;;;;;16.42;11.98;;;21.70;99.90;;;;;;5059104;28;20264;-82
2023/06/22 07:14:44;;;;;;;15.57;10.77;;;21.70;99.90;;;;;;5059655;28;20209;-82
2023/06/22 07:17:11;;;;;;;15.38;10.93;;;21.90;99.90;;;;;;5060382;28;20242;-82
2023/06/22 07:19:38;;;;;;;15.85;11.23;;;22.00;99.90;;;;;;5059771;28;20235;-82
2023/06/22 07:22:05;;;;;;;14.98;11.85;;;21.90;99.90;;;;;;5058611;28;20223;-83
2023/06/22 07:24:33;;;;;;;15.90;11.93;;;22.10;99.90;;;;;;5060610;28;20290;-82
2023/06/22 07:27:00;;;;;;;13.15;11.05;;;22.30;99.90;;;;;;5060103;28;20199;-79
2023/06/22 07:29:28;;;;;;;14.55;10.95;;;22.40;99.90;;;;;;5060246;28;20294;-82
2023/06/22 07:31:56;;;;;;;14.18;10.45;;;22.40;99.90;;;;;;5060540;28;20228;-81
2023/06/22 07:34:23;;;;;;;14.27;9.80;;;22.60;99.90;;;;;;5059506;28;20214;-81
2023/06/22 07:36:49;;;;;;;12.93;9.65;;;22.80;99.90;;;;;;5058753;28;20206;-83
2023/06/22 07:39:16;;;;;;;14.50;10.43;;;22.70;99.90;;;;;;5059264;28;20222;-80
2023/06/22 07:41:43;;;;;;;12.60;10.13;;;22.70;99.90;;;;;;5059535;28;20218;-81
2023/06/22 07:44:10;;;;;;;14.05;10.40;;;22.60;99.90;;;;;;5058544;28;20228;-82
2023/06/22 07:46:38;;;;;;;12.55;9.63;;;22.40;99.90;;;;;;5058633;28;20233;-81
2023/06/22 07:49:05;;;;;;;14.15;9.70;;;22.30;99.90;;;;;;5060092;28;20237;-82
2023/06/22 07:51:32;;;;;;;15.93;10.75;;;22.10;99.90;;;;;;5059934;28;20250;-81
2023/06/22 07:53:58;;;;;;;14.10;9.85;;;22.30;99.90;;;;;;5059060;28;20682;-81
2023/06/22 07:56:25;;;;;;;12.80;9.65;;;22.40;99.90;;;;;;5060278;28;20293;-82
2023/06/22 07:58:53;;;;;;;13.80;9.68;;;22.40;99.90;;;;;;5060067;28;20293;-82
2023/06/22 08:01:20;;;;;;;15.88;10.02;;;22.40;99.90;;;;;;5059150;28;20269;-83
2023/06/22 08:03:49;;;;;;;13.60;10.15;;;22.20;99.90;;;;;;5059654;28;20206;-82
2023/06/22 08:06:16;;;;;;;12.98;9.85;;;22.30;99.90;;;;;;5059469;28;20203;-82
2023/06/22 08:08:43;;;;;;;18.55;10.98;;;22.30;99.90;;;;;;5058582;28;20293;-82
2023/06/22 08:11:10;;;;;;;13.25;10.38;;;22.20;99.90;;;;;;5059875;28;20219;-80
2023/06/22 08:13:37;;;;;;;13.63;10.60;;;22.30;99.90;;;;;;5059516;28;20230;-82
2023/06/22 08:16:04;;;;;;;14.05;10.48;;;22.30;99.90;;;;;;5059540;28;20238;-82
2023/06/22 08:18:31;;;;;;;12.57;10.02;;;22.40;99.90;;;;;;5059979;28;20224;-82
2023/06/22 08:20:59;;;;;;;13.02;10.40;;;22.40;99.90;;;;;;5060385;28;20253;-82
2023/06/22 08:23:26;;;;;;;11.52;8.98;;;22.50;99.90;;;;;;5058963;28;20341;-82
2023/06/22 08:25:53;;;;;;;16.23;10.13;;;22.50;99.90;;;;;;5058963;28;20199;-81
2023/06/22 08:28:19;;;;;;;14.05;10.75;;;22.50;99.90;;;;;;5058715;28;20571;-83
2023/06/22 08:30:46;;;;;;;12.60;10.20;;;22.60;99.90;;;;;;5058497;28;20225;-80
2023/06/22 08:33:13;;;;;;;14.73;10.35;;;22.50;99.90;;;;;;5057941;28;20207;-82
2023/06/22 08:35:40;;;;;;;14.07;10.52;;;22.50;99.90;;;;;;5058200;28;20233;-82
2023/06/22 08:38:08;;;;;;;15.68;11.07;;;22.40;99.90;;;;;;5057435;28;20219;-82
2023/06/22 08:40:35;;;;;;;15.00;10.35;;;22.40;99.90;;;;;;5057817;28;20600;-82
2023/06/22 08:43:02;;;;;;;15.05;10.90;;;22.40;99.90;;;;;;5058000;28;20291;-82
2023/06/22 08:45:29;;;;;;;16.25;10.85;;;22.50;99.90;;;;;;5059124;28;20628;-81
2023/06/22 08:47:55;;;;;;;13.57;10.52;;;22.40;99.90;;;;;;5059300;28;20270;-80
2023/06/22 08:50:22;;;;;;;13.93;10.77;;;22.40;99.90;;;;;;5059200;28;20219;-83
2023/06/22 08:52:49;;;;;;;16.25;11.18;;;22.40;99.90;;;;;;5059325;28;20609;-82
2023/06/22 08:55:18;;;;;;;14.65;11.52;;;22.30;99.90;;;;;;5059520;28;20199;-82
2023/06/22 08:57:45;;;;;;;15.68;10.98;;;22.30;99.90;;;;;;5059279;28;20230;-82
2023/06/22 09:00:16;;;;;;;17.52;11.10;;;22.40;99.90;;;;;;5059087;28;20273;-82
2023/06/22 09:02:43;;;;;;;17.33;11.35;;;22.40;99.90;;;;;;5058346;28;20687;-83
2023/06/22 09:05:10;;;;;;;16.13;11.45;;;22.40;99.90;;;;;;5058873;28;20213;-82
2023/06/22 09:07:37;;;;;;;16.17;11.55;;;22.40;99.90;;;;;;5056798;28;20541;-81
2023/06/22 09:10:05;;;;;;;16.42;11.52;;;22.40;99.90;;;;;;5058454;28;20305;-82
2023/06/22 09:12:34;;;;;;;17.52;11.85;;;22.50;99.90;;;;;;5057274;28;20538;-82
2023/06/22 09:15:02;;;;;;;14.20;11.23;;;22.40;99.90;;;;;;5057316;28;20237;-81
2023/06/22 09:17:29;;;;;;;15.05;11.80;;;22.60;99.90;;;;;;5057788;28;20203;-81
2023/06/22 09:19:56;;;;;;;19.67;12.68;;;22.80;99.90;;;;;;5057101;28;20250;-82
2023/06/22 09:22:28;;;;;;;18.13;12.32;;;22.80;99.90;;;;;;5056569;28;20214;-82
2023/06/22 09:24:55;;;;;;;16.48;12.23;;;22.90;99.90;;;;;;5055750;28;20702;-82
2023/06/22 09:27:22;;;;;;;19.13;12.55;;;23.00;99.90;;;;;;5056617;28;20229;-82
2023/06/22 09:29:51;;;;;;;19.98;12.80;;;22.90;99.90;;;;;;5056152;28;20231;-82
2023/06/22 09:32:17;;;;;;;17.35;12.73;;;23.10;99.90;;;;;;5056764;28;20202;-82
2023/06/22 09:34:44;;;;;;;15.60;11.77;;;23.20;99.90;;;;;;5056476;28;20208;-82
2023/06/22 09:37:11;;;;;;;15.02;11.70;;;23.20;99.90;;;;;;5055735;28;20203;-82
2023/06/22 09:39:38;;;;;;;17.55;12.23;;;23.00;99.90;;;;;;5056059;28;20213;-82
2023/06/22 09:42:06;;;;;;;18.17;12.60;;;23.00;99.90;;;;;;5056445;28;20226;-82
2023/06/22 09:44:33;;;;;;;17.30;12.82;;;23.20;99.90;;;;;;5060706;28;20571;-82
2023/06/22 09:47:01;;;;;;;16.02;12.48;;;23.30;99.90;;;;;;5061385;28;20290;-80
2023/06/22 09:49:28;;;;;;;19.33;13.90;;;23.40;99.90;;;;;;5061359;28;20202;-81
2023/06/22 09:51:55;;;;;;;20.63;14.20;;;23.60;99.90;;;;;;5061569;28;20219;-82
2023/06/22 09:54:21;;;;;;;18.58;14.10;;;23.50;99.90;;;;;;5061396;28;20233;-82
2023/06/22 09:56:48;;;;;;;18.63;14.15;;;23.60;99.90;;;;;;5060963;28;20209;-80
2023/06/22 09:59:15;;;;;;;21.10;15.23;;;24.00;99.90;;;;;;5061232;28;20221;-82
2023/06/22 10:01:42;;;;;;;18.85;14.68;;;24.00;99.90;;;;;;5061358;28;20234;-81
2023/06/22 10:04:10;;;;;;;20.80;14.98;;;23.80;99.90;;;;;;5060880;28;20193;-82
2023/06/22 10:06:40;;;;;;;19.63;14.57;;;23.90;99.90;;;;;;5061744;28;20209;-81
2023/06/22 10:09:08;;;;;;;21.23;15.98;;;24.00;99.90;;;;;;5062140;28;20278;-82
2023/06/22 10:11:35;;;;;;;19.05;15.07;;;24.00;99.90;;;;;;5061431;28;20223;-80
2023/06/22 10:14:04;;;;;;;20.98;15.90;;;24.10;99.90;;;;;;5060537;28;20285;-80
2023/06/22 10:16:32;;;;;;;18.90;14.77;;;24.20;99.90;;;;;;5060044;28;20210;-83
2023/06/22 10:18:59;;;;;;;19.73;15.52;;;24.00;99.90;;;;;;5059995;28;20290;-81
2023/06/22 10:21:28;;;;;;;20.98;16.23;;;24.10;99.90;;;;;;5060411;28;20666;-81
2023/06/22 10:23:55;;;;;;;19.00;15.85;;;24.00;99.90;;;;;;5060524;28;20286;-83
2023/06/22 10:26:22;;;;;;;19.88;16.17;;;24.20;99.90;;;;;;5061492;28;20241;-82
2023/06/22 10:28:49;;;;;;;19.02;15.73;;;24.20;99.90;;;;;;5061237;28;20627;-82
2023/06/22 10:31:16;;;;;;;22.80;16.42;;;24.30;99.90;;;;;;5060081;28;20228;-82
2023/06/22 10:33:43;;;;;;;25.05;16.77;;;24.40;99.90;;;;;;5060598;28;20203;-82
2023/06/22 10:36:11;;;;;;;25.08;17.75;;;24.30;99.90;;;;;;5047173;28;20273;-82
2023/06/22 10:38:39;;;;;;;22.20;16.98;;;24.30;99.90;;;;;;5060524;28;20286;-80
2023/06/22 10:41:06;;;;;;;23.35;17.20;;;24.30;99.90;;;;;;5060087;28;20225;-80
2023/06/22 10:43:33;;;;;;;27.17;17.58;;;24.30;99.90;;;;;;5059553;28;20207;-81
2023/06/22 10:46:00;;;;;;;20.45;16.17;;;24.20;99.90;;;;;;5060893;28;20234;-81
2023/06/22 10:48:26;;;;;;;23.73;17.00;;;24.40;99.90;;;;;;5060591;28;20207;-81
2023/06/22 10:50:54;;;;;;;19.75;15.80;;;24.40;99.90;;;;;;5059783;28;20251;-81
2023/06/22 10:53:21;;;;;;;23.70;17.33;;;24.50;99.90;;;;;;5060152;28;20310;-83
2023/06/22 10:55:50;;;;;;;21.10;17.17;;;24.40;99.90;;;;;;5057798;28;20298;-82
2023/06/22 10:58:18;;;;;;;22.33;17.65;;;24.50;99.90;;;;;;5058887;28;20238;-82
2023/06/22 11:00:45;;;;;;;20.40;16.92;;;24.50;99.90;;;;;;5059685;28;20235;-81
2023/06/22 11:03:13;;;;;;;21.17;17.73;;;24.40;99.90;;;;;;5058290;28;20217;-82
2023/06/22 11:05:41;;;;;;;23.45;18.23;;;24.40;99.90;;;;;;5059073;28;20199;-82
2023/06/22 11:08:08;;;;;;;22.77;17.27;;;24.60;99.90;;;;;;5058813;28;20214;-82
2023/06/22 11:10:35;;;;;;;21.30;17.52;;;24.70;99.90;;;;;;5059287;28;20223;-82
2023/06/22 11:13:04;;;;;;;19.42;16.27;;;24.80;99.90;;;;;;5058837;28;20294;-81
2023/06/22 11:15:30;;;;;;;23.70;18.27;;;25.20;99.90;;;;;;5059997;28;20199;-82
2023/06/22 11:17:57;;;;;;;22.33;17.20;;;25.30;99.90;;;;;;5060161;28;20223;-82
2023/06/22 11:20:24;;;;;;;20.90;17.15;;;26.00;99.90;;;;;;5059861;28;20234;-83
2023/06/22 11:22:51;;;;;;;24.75;18.10;;;26.40;99.90;;;;;;5060142;28;20209;-82
2023/06/22 11:25:18;;;;;;;21.27;17.75;;;26.60;99.90;;;;;;5060003;28;20234;-81
2023/06/22 11:27:45;;;;;;;22.25;17.35;;;26.90;99.90;;;;;;5048279;28;20212;-82
2023/06/22 11:30:13;;;;;;;21.10;17.55;;;26.90;99.90;;;;;;5047661;28;20250;-82
2023/06/22 11:32:40;;;;;;;20.88;17.85;;;26.90;99.90;;;;;;5059872;28;20290;-82
2023/06/22 11:35:07;;;;;;;21.55;17.65;;;26.90;99.90;;;;;;5057920;28;20203;-82
2023/06/22 11:37:34;;;;;;;21.00;15.75;;;26.90;99.90;;;;;;5057508;28;20199;-81
2023/06/22 11:40:02;;;;;;;19.05;15.82;;;27.30;99.90;;;;;;5056705;28;20203;-82
2023/06/22 11:42:29;;;;;;;21.77;17.63;;;27.10;99.90;;;;;;5058028;28;20222;-82
2023/06/22 11:44:56;;;;;;;20.80;17.83;;;26.80;99.90;;;;;;5058155;28;20209;-82
2023/06/22 11:47:24;;;;;;;21.70;17.63;;;26.80;99.90;;;;;;5058619;28;20199;-80
2023/06/22 11:49:51;;;;;;;19.58;16.13;;;27.00;99.90;;;;;;5058077;28;20238;-82
2023/06/22 11:52:19;;;;;;;19.85;15.13;;;26.90;99.90;;;;;;5057204;28;20242;-82
2023/06/22 11:54:46;;;;;;;17.67;14.45;;;27.00;99.90;;;;;;5057975;28;20198;-82
2023/06/22 11:57:13;;;;;;;19.83;14.52;;;26.90;99.90;;;;;;5057665;28;20215;-80
2023/06/22 11:59:40;;;;;;;17.30;14.05;;;27.00;99.90;;;;;;5057793;28;20214;-82
2023/06/22 12:02:08;;;;;;;17.58;14.10;;;27.40;99.90;;;;;;5051431;28;20242;-83
2023/06/22 12:04:37;;;;;;;19.63;15.35;;;27.80;99.90;;;;;;5055821;28;20295;-83
2023/06/22 12:07:04;;;;;;;17.33;13.48;;;28.10;99.90;;;;;;5058095;28;20748;-80
2023/06/22 12:09:32;;;;;;;18.15;14.88;;;27.40;99.90;;;;;;5058513;28;20207;-81
2023/06/22 12:12:10;;;;;;;16.38;14.18;;;27.30;99.90;;;;;;5056561;28;20219;-81
2023/06/22 12:14:36;;;;;;;16.40;13.82;;;27.50;99.90;;;;;;5057058;28;20492;-82
2023/06/22 12:17:03;;;;;;;16.58;13.88;;;27.60;99.90;;;;;;5057180;28;20199;-81
2023/06/22 12:19:30;;;;;;;14.88;12.50;;;27.60;99.90;;;;;;5058040;28;20310;-83
2023/06/22 12:21:58;;;;;;;15.60;12.80;;;27.80;99.90;;;;;;5057296;28;20317;-82
2023/06/22 12:24:25;;;;;;;15.40;11.93;;;27.90;99.90;;;;;;5057098;28;20199;-81
2023/06/22 12:26:52;;;;;;;15.52;12.77;;;28.20;99.90;;;;;;5056923;28;20211;-81
2023/06/22 12:29:19;;;;;;;15.50;12.60;;;28.20;99.90;;;;;;5057794;28;20207;-81
2023/06/22 12:31:45;;;;;;;15.85;13.15;;;28.20;99.90;;;;;;5057812;28;20641;-81